createdAt,value
2022-11-02T00:02:28.565Z,9.08
2022-11-02T00:04:57.170Z,9.04
2022-11-02T00:07:25.712Z,9.14
2022-11-02T00:09:54.328Z,9.08
2022-11-02T00:12:22.899Z,9.01
2022-11-02T00:14:51.529Z,9.05
2022-11-02T00:17:20.250Z,8.97
2022-11-02T00:19:50.100Z,9.01
2022-11-02T00:22:19.494Z,9.03
2022-11-02T00:24:48.158Z,8.98
2022-11-02T00:27:16.889Z,8.93
2022-11-02T00:29:45.561Z,8.92
2022-11-02T00:32:14.197Z,8.66
2022-11-02T00:34:42.871Z,8.68
2022-11-02T00:37:11.566Z,8.68
2022-11-02T00:39:40.425Z,8.58
2022-11-02T00:42:11.877Z,8.66
2022-11-02T00:44:40.609Z,8.59
2022-11-02T00:47:09.725Z,8.66
2022-11-02T00:49:38.266Z,8.66
2022-11-02T00:52:08.869Z,8.72
2022-11-02T00:54:37.536Z,8.70
2022-11-02T00:57:07.860Z,8.66
2022-11-02T00:59:36.608Z,8.55
2022-11-02T01:02:06.617Z,8.64
2022-11-02T01:04:35.282Z,8.58
2022-11-02T01:07:04.890Z,8.58
2022-11-02T01:09:34.632Z,8.58
2022-11-02T01:12:03.334Z,8.55
2022-11-02T01:14:32.028Z,8.47
2022-11-02T01:17:00.646Z,8.39
2022-11-02T01:19:29.397Z,8.32
2022-11-02T01:21:58.011Z,8.27
2022-11-02T01:24:26.711Z,8.19
2022-11-02T01:26:55.353Z,8.19
2022-11-02T01:29:24.030Z,8.18
2022-11-02T01:31:53.682Z,8.19
2022-11-02T01:34:22.548Z,8.14
2022-11-02T01:36:51.642Z,8.07
2022-11-02T01:39:22.598Z,8.05
2022-11-02T01:41:55.542Z,7.96
2022-11-02T01:44:36.137Z,7.94
2022-11-02T01:47:25.195Z,7.98
2022-11-02T01:49:56.761Z,7.91
2022-11-02T01:52:36.481Z,8.01
2022-11-02T01:55:18.000Z,8.02
2022-11-02T01:57:49.573Z,7.93
2022-11-02T02:00:19.338Z,7.99
2022-11-02T02:02:50.965Z,7.97
2022-11-02T02:05:21.693Z,8.02
2022-11-02T02:07:52.404Z,7.98
2022-11-02T02:10:21.295Z,7.94
2022-11-02T02:12:50.166Z,8.02
2022-11-02T02:15:19.093Z,7.95
2022-11-02T02:17:56.767Z,8.16
2022-11-02T02:20:33.890Z,8.07
2022-11-02T02:23:23.291Z,8.06
2022-11-02T02:26:14.527Z,8.04
2022-11-02T02:28:46.653Z,8.04
2022-11-02T02:31:20.834Z,7.98
2022-11-02T02:33:58.086Z,7.87
2022-11-02T02:36:29.719Z,7.86
2022-11-02T02:39:13.398Z,7.85
2022-11-02T02:41:47.985Z,7.86
2022-11-02T02:44:19.616Z,7.81
2022-11-02T02:47:09.338Z,7.70
2022-11-02T02:49:43.879Z,7.78
2022-11-02T02:52:17.002Z,7.78
2022-11-02T02:54:48.248Z,7.71
2022-11-02T02:57:20.193Z,7.73
2022-11-02T02:59:50.027Z,7.67
2022-11-02T03:02:24.750Z,7.66
2022-11-02T03:04:53.422Z,7.66
2022-11-02T03:07:34.377Z,7.77
2022-11-02T03:10:14.824Z,7.65
2022-11-02T03:13:07.459Z,7.80
2022-11-02T03:15:47.942Z,7.77
2022-11-02T03:18:25.795Z,7.73
2022-11-02T03:21:03.276Z,7.75
2022-11-02T03:23:49.574Z,7.63
2022-11-02T03:26:24.338Z,7.65
2022-11-02T03:29:01.712Z,7.61
2022-11-02T03:31:36.201Z,7.47
2022-11-02T03:34:31.434Z,7.44
2022-11-02T03:37:03.101Z,7.45
2022-11-02T03:39:40.462Z,7.38
2022-11-02T03:42:12.028Z,7.31
2022-11-02T03:44:43.074Z,6.86
2022-11-02T03:47:14.530Z,7.37
2022-11-02T03:49:48.739Z,7.33
2022-11-02T03:52:25.658Z,7.27
2022-11-02T03:55:12.507Z,7.19
2022-11-02T03:57:49.060Z,7.19
2022-11-02T04:00:23.447Z,7.06
2022-11-02T04:02:55.423Z,7.15
2022-11-02T04:05:35.385Z,7.31
2022-11-02T04:08:22.884Z,7.29
2022-11-02T04:11:11.806Z,7.24
2022-11-02T04:13:58.403Z,7.17
2022-11-02T04:16:28.146Z,7.10
2022-11-02T04:19:15.246Z,7.05
2022-11-02T04:21:47.009Z,7.01
2022-11-02T04:24:39.657Z,6.95
2022-11-02T04:27:08.845Z,7.02
2022-11-02T04:29:39.151Z,6.93
2022-11-02T04:32:09.346Z,6.91
2022-11-02T04:34:40.027Z,6.83
2022-11-02T04:37:10.249Z,6.79
2022-11-02T04:39:39.667Z,6.84
2022-11-02T04:42:08.282Z,6.80
2022-11-02T04:44:36.883Z,6.82
2022-11-02T04:47:05.517Z,6.87
2022-11-02T04:49:34.101Z,6.88
2022-11-02T04:52:02.772Z,6.91
2022-11-02T04:54:31.494Z,6.92
2022-11-02T04:57:00.104Z,6.95
2022-11-02T04:59:31.772Z,6.94
2022-11-02T05:02:02.250Z,6.97
2022-11-02T05:04:32.631Z,6.89
2022-11-02T05:07:01.933Z,6.93
2022-11-02T05:09:30.807Z,6.92
2022-11-02T05:12:05.170Z,6.98
2022-11-02T05:14:33.852Z,7.03
2022-11-02T05:17:02.683Z,7.05
2022-11-02T05:19:31.748Z,7.18
2022-11-02T05:22:00.399Z,7.14
2022-11-02T05:24:29.142Z,7.22
2022-11-02T05:27:00.034Z,7.23
2022-11-02T05:29:28.530Z,7.21
2022-11-02T05:31:58.786Z,7.27
2022-11-02T05:34:27.476Z,7.16
2022-11-02T05:36:56.081Z,7.33
2022-11-02T05:39:24.688Z,7.43
2022-11-02T05:41:53.261Z,7.43
2022-11-02T05:44:23.536Z,7.40
2022-11-02T05:47:00.069Z,7.48
2022-11-02T05:49:34.724Z,7.52
2022-11-02T05:52:34.969Z,7.51
2022-11-02T05:55:06.734Z,7.55
2022-11-02T05:57:40.082Z,7.61
2022-11-02T06:00:17.092Z,7.65
2022-11-02T06:02:50.116Z,7.74
2022-11-02T06:05:20.396Z,7.89
2022-11-02T06:07:52.431Z,7.97
2022-11-02T06:10:21.122Z,8.05
2022-11-02T06:12:53.660Z,8.16
2022-11-02T06:15:26.078Z,8.18
2022-11-02T06:18:00.147Z,8.27
2022-11-02T06:20:30.471Z,8.33
2022-11-02T06:22:59.234Z,8.26
2022-11-02T06:25:28.348Z,8.70
2022-11-02T06:27:58.054Z,8.73
2022-11-02T06:30:27.620Z,8.82
2022-11-02T06:32:56.239Z,8.87
2022-11-02T06:35:24.904Z,8.98
2022-11-02T06:37:53.445Z,9.07
2022-11-02T06:40:25.650Z,9.26
2022-11-02T06:43:15.400Z,9.37
2022-11-02T06:45:29.651Z,9.51
2022-11-02T06:47:59.434Z,9.57
2022-11-02T06:50:28.222Z,9.66
2022-11-02T06:52:56.859Z,9.79
2022-11-02T06:55:25.572Z,10.03
2022-11-02T06:57:57.854Z,10.21
2022-11-02T07:00:26.534Z,10.38
2022-11-02T07:03:04.140Z,10.58
2022-11-02T07:05:35.587Z,10.64
2022-11-02T07:08:04.584Z,10.69
2022-11-02T07:10:35.057Z,10.90
2022-11-02T07:13:07.676Z,11.03
2022-11-02T07:15:36.359Z,11.18
2022-11-02T07:18:09.031Z,11.28
2022-11-02T07:20:39.619Z,11.21
2022-11-02T07:23:09.094Z,11.01
2022-11-02T07:25:40.083Z,11.26
2022-11-02T07:28:11.759Z,11.41
2022-11-02T07:30:40.454Z,11.59
2022-11-02T07:33:09.231Z,11.67
2022-11-02T07:35:39.473Z,11.77
2022-11-02T07:38:16.786Z,11.94
2022-11-02T07:40:58.855Z,12.05
2022-11-02T07:43:29.205Z,12.26
2022-11-02T07:46:00.449Z,12.53
2022-11-02T07:48:33.886Z,12.73
2022-11-02T07:51:13.569Z,12.96
2022-11-02T07:53:48.021Z,13.19
2022-11-02T07:56:18.315Z,13.14
2022-11-02T07:58:53.025Z,13.28
2022-11-02T08:01:27.825Z,13.45
2022-11-02T08:04:01.564Z,13.64
2022-11-02T08:06:31.811Z,13.87
2022-11-02T08:09:02.532Z,13.92
2022-11-02T08:11:32.025Z,14.05
2022-11-02T08:14:13.098Z,14.10
2022-11-02T08:16:49.805Z,14.23
2022-11-02T08:19:20.078Z,14.34
2022-11-02T08:21:54.121Z,14.03
2022-11-02T08:24:23.049Z,14.28
2022-11-02T08:35:19.028Z,14.80
2022-11-02T08:58:47.631Z,15.80
2022-11-02T09:16:40.169Z,16.22
2022-11-02T09:22:21.793Z,16.59
2022-11-02T09:24:55.491Z,16.52
2022-11-02T09:27:34.241Z,16.67
2022-11-02T09:33:51.862Z,16.81
2022-11-02T09:36:22.251Z,16.86
2022-11-02T09:38:55.361Z,17.01
2022-11-02T09:42:19.882Z,17.08
2022-11-02T09:44:57.396Z,17.24
2022-11-02T09:56:42.473Z,17.46
2022-11-02T09:59:17.590Z,17.69
2022-11-02T10:02:00.924Z,17.75
2022-11-02T10:05:08.578Z,17.97
2022-11-02T10:08:01.850Z,18.02
2022-11-02T10:14:29.211Z,18.26
2022-11-02T10:17:03.908Z,18.44
2022-11-02T10:19:54.221Z,18.51
2022-11-02T10:22:38.133Z,18.66
2022-11-02T10:25:18.973Z,18.77
2022-11-02T10:31:27.095Z,19.06
2022-11-02T10:34:06.467Z,19.10
2022-11-02T10:36:44.264Z,19.26
2022-11-02T10:43:24.377Z,19.21
2022-11-02T10:46:07.738Z,19.32
2022-11-02T10:49:07.762Z,19.39
2022-11-02T10:51:50.513Z,19.54
2022-11-02T10:57:48.161Z,19.89
2022-11-02T11:04:19.894Z,20.22
2022-11-02T11:06:56.930Z,20.37
2022-11-02T11:09:40.653Z,20.63
2022-11-02T11:21:27.983Z,21.22
2022-11-02T11:23:59.809Z,21.33
2022-11-02T11:26:31.804Z,21.58
2022-11-02T11:29:27.813Z,21.78
2022-11-02T11:32:29.767Z,21.81
2022-11-02T11:38:49.945Z,21.94
2022-11-02T11:41:47.081Z,22.13
2022-11-02T12:15:56.085Z,23.10
2022-11-02T12:18:34.979Z,23.21
2022-11-02T12:21:12.774Z,23.27
2022-11-02T12:23:56.693Z,23.20
2022-11-02T12:26:58.384Z,23.10
2022-11-02T12:33:33.080Z,23.11
2022-11-02T12:36:20.293Z,23.14
2022-11-02T12:39:12.687Z,23.14
2022-11-02T12:42:43.087Z,23.13
2022-11-02T12:49:05.849Z,23.15
2022-11-02T12:52:04.415Z,23.07
2022-11-02T12:58:04.856Z,23.05
2022-11-02T13:00:37.189Z,23.00
2022-11-02T13:07:19.172Z,22.97
2022-11-02T13:10:11.762Z,22.93
2022-11-02T13:13:37.791Z,22.57
2022-11-02T13:16:15.362Z,22.92
2022-11-02T13:22:41.533Z,22.82
2022-11-02T13:25:34.440Z,22.88
2022-11-02T13:28:38.177Z,22.84
2022-11-02T13:31:17.849Z,22.85
2022-11-02T13:33:56.923Z,22.87
2022-11-02T13:36:30.691Z,22.82
2022-11-02T13:39:14.188Z,22.74
2022-11-02T13:42:02.670Z,22.65
2022-11-02T13:44:45.819Z,22.61
2022-11-02T13:47:26.633Z,22.60
2022-11-02T13:49:58.292Z,22.60
2022-11-02T13:52:49.114Z,22.44
2022-11-02T13:55:27.247Z,22.48
2022-11-02T13:57:59.650Z,22.30
2022-11-02T14:00:56.092Z,22.41
2022-11-02T14:03:33.366Z,22.35
2022-11-02T14:06:05.163Z,22.40
2022-11-02T14:08:39.438Z,22.34
2022-11-02T14:11:13.762Z,22.35
2022-11-02T14:14:00.753Z,22.41
2022-11-02T14:19:27.012Z,22.05
2022-11-02T14:22:09.672Z,21.94
2022-11-02T14:25:04.439Z,21.89
2022-11-02T14:27:37.663Z,21.92
2022-11-02T14:30:08.235Z,21.72
2022-11-02T14:32:45.928Z,21.62
2022-11-02T14:35:45.918Z,21.63
2022-11-02T14:38:44.156Z,21.39
2022-11-02T14:41:53.720Z,21.21
2022-11-02T14:44:40.562Z,21.24
2022-11-02T14:47:13.349Z,21.07
2022-11-02T14:53:11.137Z,21.29
2022-11-02T14:55:40.801Z,21.02
2022-11-02T14:58:55.788Z,20.99
2022-11-02T15:01:26.916Z,20.86
2022-11-02T15:03:55.806Z,20.70
2022-11-02T15:06:32.507Z,20.75
2022-11-02T15:09:19.011Z,20.58
2022-11-02T15:12:10.333Z,20.60
2022-11-02T15:15:15.873Z,20.36
2022-11-02T15:21:22.377Z,20.10
2022-11-02T15:24:08.784Z,20.04
2022-11-02T15:26:58.889Z,19.82
2022-11-02T15:29:44.944Z,19.31
2022-11-02T15:32:22.876Z,19.65
2022-11-02T15:34:52.540Z,19.49
2022-11-02T15:37:27.211Z,19.30
2022-11-02T15:40:01.330Z,19.20
2022-11-02T15:42:48.493Z,18.98
2022-11-02T15:46:02.295Z,18.74
2022-11-02T15:48:59.034Z,18.49
2022-11-02T15:51:42.791Z,18.20
2022-11-02T15:54:34.186Z,18.04
2022-11-02T15:57:36.051Z,17.89
2022-11-02T16:00:22.102Z,17.83
2022-11-02T16:03:29.600Z,17.79
2022-11-02T16:06:03.303Z,17.59
2022-11-02T16:08:35.615Z,17.44
2022-11-02T16:14:32.183Z,17.22
2022-11-02T16:17:01.189Z,17.16
2022-11-02T16:19:32.679Z,17.00
2022-11-02T16:22:01.845Z,16.82
2022-11-02T16:24:32.061Z,16.75
2022-11-02T16:27:01.357Z,16.65
2022-11-02T16:29:32.516Z,16.56
2022-11-02T16:32:04.635Z,16.49
2022-11-02T16:34:43.957Z,15.88
2022-11-02T16:37:15.524Z,16.36
2022-11-02T16:39:50.182Z,16.27
2022-11-02T16:42:21.869Z,16.28
2022-11-02T16:44:56.157Z,16.25
2022-11-02T16:47:34.337Z,16.23
2022-11-02T16:50:05.217Z,16.12
2022-11-02T16:52:36.378Z,16.03
2022-11-02T16:55:22.202Z,15.96
2022-11-02T16:58:18.686Z,15.89
2022-11-02T17:01:05.674Z,15.75
2022-11-02T17:03:35.566Z,15.68
2022-11-02T17:06:08.876Z,15.63
2022-11-02T17:08:40.496Z,15.57
2022-11-02T17:11:12.075Z,15.52
2022-11-02T17:13:47.982Z,15.45
2022-11-02T17:16:21.902Z,15.35
2022-11-02T17:18:54.903Z,15.29
2022-11-02T17:49:14.049Z,14.83
2022-11-02T19:04:39.232Z,15.85
2022-11-02T19:07:35.255Z,15.79
2022-11-02T19:16:21.414Z,15.82
2022-11-02T19:18:56.032Z,15.79
2022-11-02T19:24:38.116Z,15.91
2022-11-02T19:27:24.429Z,15.97
2022-11-02T19:33:08.868Z,16.15
2022-11-02T19:35:57.578Z,16.20
2022-11-02T19:54:48.553Z,15.87
2022-11-02T19:57:33.831Z,15.71
2022-11-02T20:00:08.959Z,15.57
2022-11-02T20:02:51.627Z,15.65
2022-11-02T20:05:22.043Z,15.68
2022-11-02T20:08:44.797Z,15.78
2022-11-02T20:10:28.834Z,15.97
2022-11-02T20:13:00.525Z,16.07
2022-11-02T20:15:34.347Z,15.95
2022-11-02T20:18:18.776Z,16.13
2022-11-02T20:20:41.361Z,16.02
2022-11-02T20:23:12.369Z,16.03
2022-11-02T20:25:43.912Z,16.08
2022-11-02T20:28:19.201Z,16.07
2022-11-02T20:30:53.863Z,16.10
2022-11-02T20:33:46.933Z,15.51
2022-11-02T20:36:18.230Z,15.89
2022-11-02T20:38:49.130Z,15.94
2022-11-02T20:41:27.835Z,15.91
2022-11-02T20:44:01.491Z,15.84
2022-11-02T20:46:39.639Z,15.74
2022-11-02T20:49:21.921Z,15.64
2022-11-02T20:51:44.993Z,15.59
2022-11-02T20:54:27.858Z,15.50
2022-11-02T20:56:59.064Z,15.42
2022-11-02T20:59:29.344Z,15.38
2022-11-02T21:01:58.726Z,15.51
2022-11-02T21:04:27.640Z,15.49
2022-11-02T21:07:12.904Z,15.53
2022-11-02T21:09:42.040Z,15.52
2022-11-02T21:12:55.522Z,15.58
2022-11-02T21:18:10.770Z,15.55
2022-11-02T21:20:56.007Z,15.63
2022-11-02T21:23:26.874Z,15.54
2022-11-02T21:26:08.483Z,15.38
2022-11-02T21:28:49.868Z,15.35
2022-11-02T21:31:21.980Z,15.29
2022-11-02T21:33:51.536Z,15.20
2022-11-02T21:36:51.327Z,15.16
2022-11-02T21:39:06.433Z,15.15
2022-11-02T21:44:34.299Z,15.21
2022-11-02T21:47:30.633Z,15.33
2022-11-02T21:50:33.127Z,15.26
2022-11-02T21:53:30.585Z,15.43
2022-11-02T21:56:28.733Z,15.49
2022-11-02T22:04:50.301Z,15.82
2022-11-02T22:07:30.100Z,15.92
2022-11-02T22:10:03.112Z,15.85
2022-11-02T22:12:54.750Z,15.98
2022-11-02T22:15:23.252Z,16.05
2022-11-02T22:17:55.223Z,16.12
2022-11-02T22:20:29.973Z,16.10
2022-11-02T22:23:02.049Z,16.14
2022-11-02T22:25:33.910Z,16.08
2022-11-02T22:28:05.210Z,16.06
2022-11-02T22:30:34.648Z,16.05
2022-11-02T22:33:08.813Z,15.72
2022-11-02T22:35:38.496Z,16.19
2022-11-02T22:38:33.760Z,16.12
2022-11-02T22:41:04.291Z,16.08
2022-11-02T22:43:33.072Z,16.01
2022-11-02T22:46:09.441Z,15.85
2022-11-02T22:48:38.329Z,15.87
2022-11-02T22:51:11.528Z,15.88
2022-11-02T22:53:40.539Z,15.86
2022-11-02T22:56:14.776Z,15.91
2022-11-02T22:58:45.975Z,15.93
2022-11-02T23:01:23.251Z,15.84
2022-11-02T23:03:52.957Z,15.76
2022-11-02T23:06:23.592Z,15.66
2022-11-02T23:08:54.754Z,15.53
2022-11-02T23:11:26.688Z,15.41
2022-11-02T23:14:12.882Z,15.32
2022-11-02T23:16:43.492Z,15.21
2022-11-02T23:19:29.140Z,15.07
2022-11-02T23:22:33.101Z,14.95
2022-11-02T23:25:14.944Z,14.99
2022-11-02T23:28:15.559Z,15.01
2022-11-02T23:31:02.538Z,15.02
2022-11-02T23:33:40.318Z,15.03
2022-11-02T23:36:15.508Z,15.19
2022-11-02T23:39:07.358Z,15.21
2022-11-02T23:41:41.742Z,15.18
2022-11-02T23:44:14.736Z,15.26
2022-11-02T23:46:45.225Z,15.44
2022-11-02T23:49:15.760Z,15.42
2022-11-02T23:52:01.973Z,15.37
2022-11-02T23:54:48.436Z,15.42
2022-11-02T23:57:18.735Z,15.35
2022-11-02T23:59:47.309Z,15.30
